Time;durP1;ratioP1;P1;durP2;ratioP2;P2;SDS_P1;SDS_P2;PMS_P1;PMS_P2;Temp;Humidity;BMP_temperature;BMP_pressure;BME280_temperature;BME280_humidity;BME280_pressure;Samples;Min_cycle;Max_cycle;Signal;HPM_P1;HPM_P2
2023/05/24 00:00:37;;;;;;;11.18;10.50;;;;;;;;;;4966633;28;20038;-60
2023/05/24 00:03:03;;;;;;;11.10;10.43;;;;;;;;;;4963816;28;20647;-66
2023/05/24 00:05:29;;;;;;;13.07;12.27;;;;;;;;;;4960918;28;20054;-60
2023/05/24 00:07:55;;;;;;;11.80;11.10;;;;;;;;;;4957894;28;20392;-67
2023/05/24 00:10:21;;;;;;;11.73;10.88;;;;;;;;;;4957354;28;20043;-67
2023/05/24 00:12:46;;;;;;;12.90;11.73;;;;;;;;;;4961850;28;20027;-67
2023/05/24 00:15:11;;;;;;;11.30;10.07;;;;;;;;;;4959613;28;20031;-66
2023/05/24 00:17:39;;;;;;;11.20;10.50;;;;;;;;;;4961093;28;20039;-68
2023/05/24 00:20:10;;;;;;;10.07;9.48;;;;;;;;;;4957989;28;20031;-67
2023/05/24 00:22:36;;;;;;;;;;;;;;;;;;4960191;28;20389;-66
2023/05/24 00:25:02;;;;;;;11.32;10.63;;;;;;;;;;4961449;28;19929;-68
2023/05/24 00:27:27;;;;;;;10.35;9.75;;;;;;;;;;4960901;28;20047;-61
2023/05/24 00:29:52;;;;;;;13.30;12.40;;;;;;;;;;4958100;28;20054;-61
2023/05/24 00:32:18;;;;;;;11.15;10.35;;;;;;;;;;4958213;28;20481;-70
2023/05/24 00:34:43;;;;;;;11.80;10.90;;;;;;;;;;4958569;28;20031;-61
2023/05/24 00:37:08;;;;;;;12.18;11.38;;;;;;;;;;4962934;28;20145;-69
2023/05/24 00:39:34;;;;;;;11.32;10.63;;;;;;;;;;4960618;28;20047;-61
2023/05/24 00:41:59;;;;;;;11.18;10.38;;;;;;;;;;4960796;28;20034;-68
2023/05/24 00:44:25;;;;;;;11.07;10.38;;;;;;;;;;4962746;28;20045;-67
2023/05/24 00:46:50;;;;;;;11.65;10.95;;;;;;;;;;4975348;28;20477;-62
2023/05/24 00:49:16;;;;;;;10.35;9.75;;;;;;;;;;4961868;28;20177;-61
2023/05/24 00:51:41;;;;;;;11.02;10.32;;;;;;;;;;4959627;28;20371;-61
2023/05/24 00:54:07;;;;;;;11.63;10.82;;;;;;;;;;4964215;28;20094;-67
2023/05/24 00:56:32;;;;;;;11.85;11.05;;;;;;;;;;4957716;28;20059;-68
2023/05/24 00:58:59;;;;;;;11.02;10.32;;;;;;;;;;4956380;28;20046;-68
2023/05/24 01:01:24;;;;;;;11.18;10.32;;;;;;;;;;4959402;28;20031;-67
2023/05/24 01:03:53;;;;;;;10.70;9.73;;;;;;;;;;4960761;28;20425;-67
2023/05/24 01:06:19;;;;;;;11.32;10.52;;;;;;;;;;4959883;28;20035;-68
2023/05/24 01:09:01;;;;;;;11.07;10.35;;;;;;;;;;4956383;28;20096;-69
2023/05/24 01:11:54;;;;;;;12.20;11.40;;;;;;;;;;4956808;28;20480;-61
2023/05/24 01:14:34;;;;;;;10.50;9.88;;;;;;;;;;4960082;28;20558;-68
2023/05/24 01:17:17;;;;;;;9.90;9.30;;;;;;;;;;4961004;28;20043;-68
2023/05/24 01:19:51;;;;;;;10.98;10.18;;;;;;;;;;4960585;28;20287;-61
2023/05/24 01:22:38;;;;;;;10.82;10.13;;;;;;;;;;4957200;28;20098;-69
2023/05/24 01:25:22;;;;;;;10.90;10.18;;;;;;;;;;4960129;28;20035;-62
2023/05/24 01:27:48;;;;;;;12.80;11.65;;;;;;;;;;4962049;28;20051;-62
2023/05/24 01:30:14;;;;;;;10.10;9.40;;;;;;;;;;4958693;28;20042;-69
2023/05/24 01:32:39;;;;;;;11.00;10.23;;;;;;;;;;4958304;28;20027;-69
2023/05/24 01:35:05;;;;;;;10.45;9.77;;;;;;;;;;4958577;28;20047;-61
2023/05/24 01:37:31;;;;;;;11.30;10.57;;;;;;;;;;4959410;28;20030;-69
2023/05/24 01:39:56;;;;;;;11.05;10.10;;;;;;;;;;4958776;28;20047;-69
2023/05/24 01:42:26;;;;;;;10.35;9.75;;;;;;;;;;4960228;28;20027;-62
2023/05/24 01:45:07;;;;;;;10.80;10.00;;;;;;;;;;4957908;28;20058;-68
2023/05/24 01:47:35;;;;;;;9.93;9.23;;;;;;;;;;4960422;28;20027;-62
2023/05/24 01:50:16;;;;;;;10.70;9.90;;;;;;;;;;4959429;28;20047;-69
2023/05/24 01:52:44;;;;;;;37.90;10.45;;;;;;;;;;4957933;28;20093;-61
2023/05/24 01:55:13;;;;;;;11.02;10.27;;;;;;;;;;4958098;28;20034;-62
2023/05/24 01:57:42;;;;;;;11.10;10.40;;;;;;;;;;4955665;28;20051;-62
2023/05/24 02:00:10;;;;;;;11.23;10.52;;;;;;;;;;4954561;28;20489;-70
2023/05/24 02:02:36;;;;;;;10.45;9.82;;;;;;;;;;4959732;28;20041;-68
2023/05/24 02:05:02;;;;;;;10.98;10.27;;;;;;;;;;4957729;28;20050;-69
2023/05/24 02:07:27;;;;;;;11.30;10.60;;;;;;;;;;4957107;28;20031;-70
2023/05/24 02:09:52;;;;;;;11.77;11.00;;;;;;;;;;4957228;28;20031;-70
2023/05/24 02:12:18;;;;;;;10.30;9.70;;;;;;;;;;4957254;28;20035;-62
2023/05/24 02:14:43;;;;;;;10.20;9.57;;;;;;;;;;4959258;28;20130;-62
2023/05/24 02:17:08;;;;;;;10.85;10.15;;;;;;;;;;4956088;28;20114;-69
2023/05/24 02:19:35;;;;;;;10.95;10.25;;;;;;;;;;4954527;28;20081;-70
2023/05/24 02:22:01;;;;;;;11.43;10.40;;;;;;;;;;4958320;28;20057;-69
2023/05/24 02:24:26;;;;;;;11.18;10.48;;;;;;;;;;4960964;28;20026;-69
2023/05/24 02:26:53;;;;;;;10.00;9.30;;;;;;;;;;4958368;28;20544;-69
2023/05/24 02:29:20;;;;;;;10.20;9.50;;;;;;;;;;4957839;28;20616;-68
2023/05/24 02:31:45;;;;;;;10.52;9.82;;;;;;;;;;4957493;28;20122;-62
2023/05/24 02:34:11;;;;;;;10.07;9.38;;;;;;;;;;4956996;28;20121;-62
2023/05/24 02:36:36;;;;;;;11.38;9.60;;;;;;;;;;4959431;28;20044;-69
2023/05/24 02:39:03;;;;;;;10.63;9.93;;;;;;;;;;4958609;28;20059;-62
2023/05/24 02:41:28;;;;;;;10.48;9.82;;;;;;;;;;4960697;28;20121;-62
2023/05/24 02:43:53;;;;;;;20.75;10.27;;;;;;;;;;4956666;28;20804;-62
2023/05/24 02:46:19;;;;;;;10.10;9.40;;;;;;;;;;4959771;28;20050;-62
2023/05/24 02:48:44;;;;;;;11.32;10.27;;;;;;;;;;4959119;28;20121;-62
2023/05/24 02:51:09;;;;;;;10.60;9.80;;;;;;;;;;4955194;28;20053;-62
2023/05/24 02:53:35;;;;;;;10.95;10.25;;;;;;;;;;4957974;28;20358;-62
2023/05/24 02:56:00;;;;;;;9.65;9.05;;;;;;;;;;4955034;28;20043;-62
2023/05/24 02:58:27;;;;;;;11.35;10.55;;;;;;;;;;4961431;28;20110;-62
2023/05/24 03:00:53;;;;;;;10.50;9.80;;;;;;;;;;4959462;28;20045;-62
2023/05/24 03:03:19;;;;;;;10.25;9.65;;;;;;;;;;4955004;28;20048;-69
2023/05/24 03:05:44;;;;;;;10.20;9.55;;;;;;;;;;4957762;28;20046;-69
2023/05/24 03:08:09;;;;;;;9.90;9.30;;;;;;;;;;4956692;28;20232;-62
2023/05/24 03:10:35;;;;;;;10.07;9.48;;;;;;;;;;4957023;28;20069;-69
2023/05/24 03:13:00;;;;;;;10.35;9.63;;;;;;;;;;4959080;28;20133;-62
2023/05/24 03:15:25;;;;;;;11.32;10.57;;;;;;;;;;4959793;28;20441;-69
2023/05/24 03:17:51;;;;;;;10.40;9.75;;;;;;;;;;4957095;28;20568;-69
2023/05/24 03:20:16;;;;;;;9.43;8.82;;;;;;;;;;4957141;28;20114;-70
2023/05/24 03:22:42;;;;;;;12.80;11.85;;;;;;;;;;4959197;28;20473;-70
2023/05/24 03:25:08;;;;;;;9.43;8.82;;;;;;;;;;4959212;28;20193;-69
2023/05/24 03:27:34;;;;;;;12.52;10.90;;;;;;;;;;4959293;28;20098;-62
2023/05/24 03:30:00;;;;;;;9.50;8.90;;;;;;;;;;4959060;28;20034;-70
2023/05/24 03:32:25;;;;;;;9.82;9.23;;;;;;;;;;4956451;28;20030;-70
2023/05/24 03:34:51;;;;;;;10.00;9.38;;;;;;;;;;4957915;28;20043;-62
2023/05/24 03:37:17;;;;;;;10.23;9.63;;;;;;;;;;4958381;28;20066;-69
2023/05/24 03:39:42;;;;;;;11.95;10.88;;;;;;;;;;4961317;28;20031;-62
2023/05/24 03:42:07;;;;;;;13.00;10.45;;;;;;;;;;4960131;28;20625;-62
2023/05/24 03:44:33;;;;;;;9.35;8.75;;;;;;;;;;4961312;28;20041;-62
2023/05/24 03:46:59;;;;;;;11.90;10.90;;;;;;;;;;4961654;28;20551;-62
2023/05/24 03:49:24;;;;;;;10.25;9.57;;;;;;;;;;4961620;28;20054;-70
2023/05/24 03:51:49;;;;;;;10.63;9.82;;;;;;;;;;4959988;28;20057;-62
2023/05/24 03:54:16;;;;;;;9.82;9.07;;;;;;;;;;4958598;28;20573;-63
2023/05/24 03:56:42;;;;;;;11.13;10.43;;;;;;;;;;4959786;28;20027;-69
2023/05/24 03:59:07;;;;;;;10.43;9.80;;;;;;;;;;4962981;28;20043;-63
2023/05/24 04:01:35;;;;;;;9.50;8.90;;;;;;;;;;4964195;28;20045;-62
2023/05/24 04:04:03;;;;;;;11.32;10.63;;;;;;;;;;4962387;28;20418;-70
2023/05/24 04:06:29;;;;;;;9.80;9.20;;;;;;;;;;4957533;28;20035;-70
2023/05/24 04:08:55;;;;;;;9.52;8.93;;;;;;;;;;4961901;28;20166;-69
2023/05/24 04:11:22;;;;;;;11.48;10.68;;;;;;;;;;4958956;28;20080;-70
2023/05/24 04:13:48;;;;;;;10.75;9.90;;;;;;;;;;4962899;28;20042;-69
2023/05/24 04:16:13;;;;;;;10.05;9.40;;;;;;;;;;4962167;28;20101;-69
2023/05/24 04:18:38;;;;;;;9.23;8.63;;;;;;;;;;4956021;28;20042;-69
2023/05/24 04:21:04;;;;;;;9.50;8.90;;;;;;;;;;4956077;28;20047;-63
2023/05/24 04:23:29;;;;;;;9.40;8.73;;;;;;;;;;4959840;28;20034;-63
2023/05/24 04:25:55;;;;;;;9.73;9.13;;;;;;;;;;4965853;28;20050;-62
2023/05/24 04:28:21;;;;;;;8.93;8.32;;;;;;;;;;4958700;28;20031;-62
2023/05/24 04:30:47;;;;;;;9.80;9.20;;;;;;;;;;4957676;28;20038;-62
2023/05/24 04:33:13;;;;;;;9.00;8.40;;;;;;;;;;4975824;28;20118;-62
2023/05/24 04:35:40;;;;;;;10.02;9.43;;;;;;;;;;4963003;28;20022;-63
2023/05/24 04:38:06;;;;;;;9.82;9.23;;;;;;;;;;4956900;28;20039;-70
2023/05/24 04:40:31;;;;;;;10.02;9.30;;;;;;;;;;4958823;28;20130;-70
2023/05/24 04:42:57;;;;;;;10.63;9.88;;;;;;;;;;4960480;28;20031;-70
2023/05/24 04:45:22;;;;;;;9.20;8.60;;;;;;;;;;4955952;28;20121;-62
2023/05/24 04:47:48;;;;;;;10.15;9.55;;;;;;;;;;4960027;28;20189;-62
2023/05/24 04:50:13;;;;;;;11.93;10.98;;;;;;;;;;4962355;28;20031;-62
2023/05/24 04:52:39;;;;;;;10.55;9.68;;;;;;;;;;4959279;28;20031;-69
2023/05/24 04:55:04;;;;;;;9.80;9.20;;;;;;;;;;4959144;28;20488;-69
2023/05/24 04:57:30;;;;;;;10.20;9.50;;;;;;;;;;4957906;28;20074;-62
2023/05/24 04:59:55;;;;;;;9.98;9.18;;;;;;;;;;4959559;28;20027;-62
2023/05/24 05:02:21;;;;;;;10.73;10.02;;;;;;;;;;4959631;28;20524;-62
2023/05/24 05:04:47;;;;;;;12.45;11.45;;;;;;;;;;4960731;28;20050;-63
2023/05/24 05:07:12;;;;;;;10.63;10.00;;;;;;;;;;4961688;28;20042;-62
2023/05/24 05:09:37;;;;;;;10.55;9.85;;;;;;;;;;4963263;28;20170;-62
2023/05/24 05:12:03;;;;;;;9.70;9.10;;;;;;;;;;4960165;28;20065;-62
2023/05/24 05:14:28;;;;;;;9.63;9.02;;;;;;;;;;4959473;28;20030;-62
2023/05/24 05:16:53;;;;;;;9.80;9.10;;;;;;;;;;4958891;28;20061;-62
2023/05/24 05:19:19;;;;;;;10.98;10.20;;;;;;;;;;4959773;28;20043;-61
2023/05/24 05:21:44;;;;;;;10.70;10.00;;;;;;;;;;4958523;28;20169;-62
2023/05/24 05:24:10;;;;;;;11.02;10.32;;;;;;;;;;4961045;28;20596;-63
2023/05/24 05:26:35;;;;;;;9.85;9.25;;;;;;;;;;4957946;28;20186;-63
2023/05/24 05:29:00;;;;;;;10.02;9.32;;;;;;;;;;4958087;28;20519;-62
2023/05/24 05:31:26;;;;;;;10.23;9.52;;;;;;;;;;4958460;28;20027;-63
2023/05/24 05:33:51;;;;;;;10.57;9.88;;;;;;;;;;4961362;28;20042;-63
2023/05/24 05:36:17;;;;;;;9.55;8.90;;;;;;;;;;4963911;28;20046;-63
2023/05/24 05:38:42;;;;;;;10.57;9.77;;;;;;;;;;4960908;28;20488;-63
2023/05/24 05:41:08;;;;;;;10.05;9.45;;;;;;;;;;4961217;28;20129;-63
2023/05/24 05:43:34;;;;;;;9.25;8.65;;;;;;;;;;4959694;28;20053;-62
2023/05/24 05:45:59;;;;;;;9.57;8.98;;;;;;;;;;4959612;28;20034;-62
2023/05/24 05:48:25;;;;;;;9.77;9.13;;;;;;;;;;4957999;28;20719;-61
2023/05/24 05:50:50;;;;;;;10.43;9.73;;;;;;;;;;4960767;28;20038;-62
2023/05/24 05:53:16;;;;;;;9.73;8.93;;;;;;;;;;4956045;28;20073;-62
2023/05/24 05:55:41;;;;;;;11.55;10.48;;;;;;;;;;4957175;28;20477;-62
2023/05/24 05:58:06;;;;;;;10.68;10.02;;;;;;;;;;4956971;28;20134;-62
2023/05/24 06:00:32;;;;;;;9.63;8.95;;;;;;;;;;4961218;28;20031;-68
2023/05/24 06:02:57;;;;;;;10.73;10.02;;;;;;;;;;4957442;28;20047;-68
2023/05/24 06:05:22;;;;;;;10.52;9.82;;;;;;;;;;4954488;28;20117;-68
2023/05/24 06:07:48;;;;;;;10.38;9.73;;;;;;;;;;4956098;28;20031;-69
2023/05/24 06:10:13;;;;;;;9.52;8.93;;;;;;;;;;4970110;28;20472;-68
2023/05/24 06:12:39;;;;;;;9.95;9.35;;;;;;;;;;4957258;28;20171;-67
2023/05/24 06:15:06;;;;;;;14.25;9.82;;;;;;;;;;4960358;28;20034;-68
2023/05/24 06:17:33;;;;;;;10.77;9.98;;;;;;;;;;4954067;28;20130;-67
2023/05/24 06:19:59;;;;;;;11.93;11.05;;;;;;;;;;4959700;28;20443;-68
2023/05/24 06:22:26;;;;;;;11.52;10.80;;;;;;;;;;4957537;28;20153;-69
2023/05/24 06:24:52;;;;;;;11.60;10.90;;;;;;;;;;4960982;28;20050;-68
2023/05/24 06:27:17;;;;;;;11.35;10.63;;;;;;;;;;4957932;28;20039;-69
2023/05/24 06:29:43;;;;;;;10.80;10.10;;;;;;;;;;4959128;28;20353;-66
2023/05/24 06:32:08;;;;;;;11.30;10.60;;;;;;;;;;4963418;28;20491;-68
2023/05/24 06:34:33;;;;;;;10.70;10.00;;;;;;;;;;4958403;28;20042;-67
2023/05/24 06:36:59;;;;;;;9.43;8.82;;;;;;;;;;4958833;28;20030;-66
2023/05/24 06:39:24;;;;;;;10.90;10.20;;;;;;;;;;4958645;28;20054;-67
2023/05/24 06:41:50;;;;;;;10.00;9.38;;;;;;;;;;4959018;28;20038;-67
2023/05/24 06:44:16;;;;;;;9.52;8.93;;;;;;;;;;4956404;28;20028;-68
2023/05/24 06:46:41;;;;;;;11.30;10.45;;;;;;;;;;4956047;28;20034;-68
2023/05/24 06:49:07;;;;;;;11.38;10.68;;;;;;;;;;4960278;28;20039;-68
2023/05/24 06:51:33;;;;;;;9.93;9.32;;;;;;;;;;4957093;28;20070;-67
2023/05/24 06:53:58;;;;;;;13.10;11.82;;;;;;;;;;4955415;28;20121;-67
2023/05/24 06:56:24;;;;;;;11.73;11.02;;;;;;;;;;4958109;28;20037;-68
2023/05/24 06:58:49;;;;;;;11.00;10.30;;;;;;;;;;4954697;28;20061;-67
2023/05/24 07:01:15;;;;;;;9.73;9.13;;;;;;;;;;4959657;28;20087;-68
2023/05/24 07:03:41;;;;;;;11.90;10.65;;;;;;;;;;4947214;28;20045;-68
2023/05/24 07:06:08;;;;;;;10.05;9.43;;;;;;;;;;4932725;29;20035;-67
2023/05/24 07:08:34;;;;;;;10.55;9.85;;;;;;;;;;4935698;29;20130;-67
2023/05/24 07:10:59;;;;;;;10.63;9.93;;;;;;;;;;4940693;29;20035;-67
2023/05/24 07:13:25;;;;;;;11.55;10.75;;;;;;;;;;4937389;29;20422;-67
2023/05/24 07:15:50;;;;;;;10.20;9.50;;;;;;;;;;4946713;29;20039;-67
2023/05/24 07:18:15;;;;;;;10.73;10.02;;;;;;;;;;4940960;29;20118;-66
2023/05/24 07:20:41;;;;;;;12.32;11.40;;;;;;;;;;4943675;29;20441;-66
2023/05/24 07:23:06;;;;;;;12.23;11.23;;;;;;;;;;4945081;28;20054;-67
2023/05/24 07:25:32;;;;;;;11.65;10.95;;;;;;;;;;4944619;28;20421;-66
2023/05/24 07:27:59;;;;;;;10.13;9.43;;;;;;;;;;4943331;28;20047;-66
2023/05/24 07:30:26;;;;;;;13.48;12.48;;;;;;;;;;4942679;29;20467;-67
2023/05/24 07:32:51;;;;;;;16.17;13.20;;;;;;;;;;4944512;29;20122;-65
2023/05/24 07:35:16;;;;;;;13.25;12.45;;;;;;;;;;4940874;28;20045;-65
2023/05/24 07:37:42;;;;;;;11.00;10.10;;;;;;;;;;4940113;29;20069;-65
2023/05/24 07:40:11;;;;;;;10.65;9.93;;;;;;;;;;4943725;29;20106;-65
2023/05/24 07:42:40;;;;;;;11.23;10.52;;;;;;;;;;4940446;29;20094;-65
2023/05/24 07:45:07;;;;;;;12.52;11.60;;;;;;;;;;4940930;29;20102;-67
2023/05/24 07:47:33;;;;;;;15.00;13.77;;;;;;;;;;4939869;29;20046;-67
2023/05/24 07:49:59;;;;;;;12.80;12.02;;;;;;;;;;4940887;29;20036;-65
2023/05/24 07:52:25;;;;;;;13.38;12.57;;;;;;;;;;4941208;29;20477;-66
2023/05/24 07:54:51;;;;;;;13.18;12.27;;;;;;;;;;4944129;28;20302;-67
2023/05/24 07:57:18;;;;;;;13.50;12.70;;;;;;;;;;4944329;29;20094;-64
2023/05/24 07:59:44;;;;;;;14.20;13.05;;;;;;;;;;4943968;29;20114;-65
2023/05/24 08:02:10;;;;;;;12.32;11.52;;;;;;;;;;4941247;29;20187;-66
2023/05/24 08:04:36;;;;;;;13.10;12.00;;;;;;;;;;4944468;28;20039;-67
2023/05/24 08:07:02;;;;;;;13.02;12.15;;;;;;;;;;4945988;29;20050;-65
2023/05/24 08:09:28;;;;;;;12.93;12.15;;;;;;;;;;4948370;29;20043;-66
2023/05/24 08:11:55;;;;;;;12.55;11.63;;;;;;;;;;4947565;29;20063;-67
2023/05/24 08:14:21;;;;;;;12.13;11.32;;;;;;;;;;4944007;28;20460;-64
2023/05/24 08:16:46;;;;;;;12.98;11.98;;;;;;;;;;4939129;28;20036;-65
2023/05/24 08:19:12;;;;;;;13.77;12.90;;;;;;;;;;4938890;29;20043;-66
2023/05/24 08:21:37;;;;;;;12.65;11.75;;;;;;;;;;4945378;29;20137;-65
2023/05/24 08:24:02;;;;;;;12.82;11.75;;;;;;;;;;4938168;28;20060;-66
2023/05/24 08:26:28;;;;;;;13.15;12.35;;;;;;;;;;4937630;29;20047;-67
2023/05/24 08:28:53;;;;;;;11.45;10.75;;;;;;;;;;4937953;29;20038;-67
2023/05/24 08:31:20;;;;;;;12.32;11.63;;;;;;;;;;4942559;28;20050;-66
2023/05/24 08:33:49;;;;;;;12.45;11.65;;;;;;;;;;4941443;29;20046;-64
2023/05/24 08:36:15;;;;;;;12.85;12.05;;;;;;;;;;4940714;29;20532;-65
2023/05/24 08:38:40;;;;;;;12.65;11.93;;;;;;;;;;4939480;29;20719;-64
2023/05/24 08:41:07;;;;;;;13.27;12.48;;;;;;;;;;4945959;29;20039;-65
2023/05/24 08:43:32;;;;;;;11.80;11.10;;;;;;;;;;4939645;29;20031;-65
2023/05/24 08:46:00;;;;;;;12.95;12.15;;;;;;;;;;4946286;28;20039;-66
2023/05/24 08:48:27;;;;;;;18.42;17.42;;;;;;;;;;4938892;29;20470;-66
2023/05/24 08:50:52;;;;;;;16.25;15.32;;;;;;;;;;4942100;29;20051;-64
2023/05/24 08:53:21;;;;;;;14.52;13.73;;;;;;;;;;4939625;28;20043;-66
2023/05/24 08:55:48;;;;;;;15.10;14.20;;;;;;;;;;4943929;29;20065;-61
2023/05/24 08:58:14;;;;;;;12.02;11.23;;;;;;;;;;4937503;29;20475;-61
2023/05/24 09:00:39;;;;;;;13.55;11.55;;;;;;;;;;4942002;29;20117;-61
2023/05/24 09:03:05;;;;;;;13.27;12.48;;;;;;;;;;4939765;28;20517;-65
2023/05/24 09:05:32;;;;;;;12.57;11.88;;;;;;;;;;4939962;28;20033;-61
2023/05/24 09:07:59;;;;;;;12.52;11.70;;;;;;;;;;4940098;29;20047;-61
2023/05/24 09:10:27;;;;;;;10.90;10.20;;;;;;;;;;4940247;29;20031;-61
2023/05/24 09:12:57;;;;;;;11.40;10.70;;;;;;;;;;4942998;28;20514;-65
2023/05/24 09:15:22;;;;;;;11.55;10.85;;;;;;;;;;4938727;29;20493;-65
2023/05/24 09:17:48;;;;;;;13.02;12.23;;;;;;;;;;4939795;29;20117;-61
2023/05/24 09:20:13;;;;;;;12.80;11.95;;;;;;;;;;4942527;29;20374;-61
2023/05/24 09:22:42;;;;;;;12.85;12.05;;;;;;;;;;4941830;29;20039;-66
2023/05/24 09:25:09;;;;;;;11.48;10.77;;;;;;;;;;4939237;29;20480;-62
2023/05/24 09:27:35;;;;;;;14.27;13.48;;;;;;;;;;4936914;28;20027;-61
2023/05/24 09:30:04;;;;;;;12.15;11.45;;;;;;;;;;4938158;29;20042;-66
2023/05/24 09:32:30;;;;;;;12.00;11.30;;;;;;;;;;4936849;29;20797;-65
2023/05/24 09:34:57;;;;;;;18.02;16.95;;;;;;;;;;4941353;29;20047;-65
2023/05/24 09:37:26;;;;;;;15.18;14.27;;;;;;;;;;4940774;28;20031;-64
2023/05/24 09:39:52;;;;;;;19.85;18.75;;;;;;;;;;4944416;29;20034;-60
2023/05/24 09:42:19;;;;;;;13.93;13.13;;;;;;;;;;4939616;28;20039;-61
2023/05/24 09:44:46;;;;;;;14.43;13.48;;;;;;;;;;4941215;29;20097;-64
2023/05/24 09:47:12;;;;;;;16.13;15.18;;;;;;;;;;4938742;28;20042;-61
2023/05/24 09:49:38;;;;;;;14.55;13.60;;;;;;;;;;4940369;28;20031;-61
2023/05/24 09:52:03;;;;;;;14.57;13.77;;;;;;;;;;4940592;28;20067;-61
2023/05/24 09:54:31;;;;;;;18.85;17.80;;;;;;;;;;4938578;28;20032;-60
2023/05/24 09:57:00;;;;;;;18.25;16.95;;;;;;;;;;4940663;29;20032;-63
2023/05/24 09:59:27;;;;;;;18.13;16.77;;;;;;;;;;4938099;28;20093;-61
2023/05/24 10:02:05;;;;;;;20.45;19.35;;;;;;;;;;4941067;28;20039;-61
2023/05/24 10:04:34;;;;;;;21.75;20.42;;;;;;;;;;4941359;29;20046;-61
2023/05/24 10:07:01;;;;;;;24.40;23.00;;;;;;;;;;4941746;28;20063;-61
2023/05/24 10:09:32;;;;;;;22.77;21.20;;;;;;;;;;4937947;29;20043;-61
2023/05/24 10:12:03;;;;;;;21.40;20.20;;;;;;;;;;4939559;29;20097;-62
2023/05/24 10:14:36;;;;;;;24.25;21.88;;;;;;;;;;4939572;29;20461;-61
2023/05/24 10:17:06;;;;;;;22.25;20.95;;;;;;;;;;4940708;29;20118;-63
2023/05/24 10:19:32;;;;;;;23.77;22.48;;;;;;;;;;4939119;29;20488;-63
2023/05/24 10:21:58;;;;;;;22.55;20.77;;;;;;;;;;4940965;28;20057;-61
2023/05/24 10:24:31;;;;;;;19.27;17.88;;;;;;;;;;4937688;29;20135;-60
2023/05/24 10:26:58;;;;;;;23.27;21.85;;;;;;;;;;4936649;29;20039;-61
2023/05/24 10:29:33;;;;;;;19.80;18.70;;;;;;;;;;4939165;29;20135;-61
2023/05/24 10:31:59;;;;;;;15.98;15.07;;;;;;;;;;4942624;29;20098;-61
2023/05/24 10:34:25;;;;;;;17.33;16.33;;;;;;;;;;4938865;28;20074;-63
2023/05/24 10:36:51;;;;;;;21.55;20.13;;;;;;;;;;4937645;28;20043;-63
2023/05/24 10:39:20;;;;;;;19.02;17.90;;;;;;;;;;4938634;28;20485;-61
2023/05/24 10:41:45;;;;;;;19.20;18.10;;;;;;;;;;4942564;28;20102;-62
2023/05/24 10:44:12;;;;;;;15.82;14.82;;;;;;;;;;4937852;28;20469;-61
2023/05/24 10:47:05;;;;;;;17.85;16.75;;;;;;;;;;4939089;29;20192;-60
2023/05/24 10:49:30;;;;;;;16.85;15.80;;;;;;;;;;4938273;29;20873;-59
2023/05/24 10:52:01;;;;;;;18.75;17.40;;;;;;;;;;4942781;29;20194;-60
2023/05/24 10:54:26;;;;;;;;;;;;;;;;;;4941655;29;20060;-60
2023/05/24 10:56:52;;;;;;;16.17;15.27;;;;;;;;;;4946473;29;19918;-59
2023/05/24 10:59:37;;;;;;;18.75;17.65;;;;;;;;;;4943855;28;20087;-61
2023/05/24 11:02:08;;;;;;;17.92;16.73;;;;;;;;;;4945350;29;20789;-62
2023/05/24 11:04:38;;;;;;;19.10;18.02;;;;;;;;;;4957373;28;20042;-62
2023/05/24 11:07:04;;;;;;;;;;;;;;;;;;4942582;29;20098;-62
2023/05/24 11:09:33;;;;;;;17.98;16.60;;;;;;;;;;4938123;29;19922;-63
2023/05/24 11:12:06;;;;;;;16.20;15.20;;;;;;;;;;4944923;29;20053;-60
2023/05/24 11:14:38;;;;;;;17.58;16.27;;;;;;;;;;4940911;28;20038;-60
2023/05/24 11:17:04;;;;;;;18.42;17.23;;;;;;;;;;4941453;29;20046;-60
2023/05/24 11:19:36;;;;;;;16.65;15.65;;;;;;;;;;4944432;28;20312;-60
2023/05/24 11:22:13;;;;;;;17.02;16.08;;;;;;;;;;4946592;29;20114;-60
2023/05/24 11:24:40;;;;;;;18.70;17.52;;;;;;;;;;4940903;29;20047;-61
2023/05/24 11:27:06;;;;;;;20.15;19.05;;;;;;;;;;4939474;29;20039;-61
2023/05/24 11:29:32;;;;;;;22.55;20.75;;;;;;;;;;4941545;29;20046;-61
2023/05/24 11:32:03;;;;;;;19.98;18.90;;;;;;;;;;4945544;28;20031;-61
2023/05/24 11:34:29;;;;;;;21.15;19.90;;;;;;;;;;4944658;29;20462;-60
2023/05/24 11:36:55;;;;;;;20.25;19.15;;;;;;;;;;4943699;28;20043;-61
2023/05/24 11:39:22;;;;;;;19.00;17.80;;;;;;;;;;4944476;28;20033;-62
2023/05/24 11:41:48;;;;;;;20.30;19.10;;;;;;;;;;4938594;29;20063;-59
2023/05/24 11:44:16;;;;;;;18.65;17.55;;;;;;;;;;4943582;29;20085;-60
2023/05/24 11:46:42;;;;;;;17.73;16.73;;;;;;;;;;4943687;29;20046;-64
2023/05/24 11:49:12;;;;;;;18.48;17.38;;;;;;;;;;4938518;29;20047;-60
2023/05/24 11:51:37;;;;;;;18.17;17.13;;;;;;;;;;4944828;29;20063;-61
2023/05/24 11:54:03;;;;;;;18.40;17.17;;;;;;;;;;4940130;28;20063;-62
2023/05/24 11:56:29;;;;;;;18.30;17.10;;;;;;;;;;4943331;29;20616;-61
2023/05/24 11:59:08;;;;;;;18.38;17.27;;;;;;;;;;4943208;29;20347;-60
2023/05/24 12:01:33;;;;;;;19.70;18.60;;;;;;;;;;4936856;28;20063;-62
2023/05/24 12:03:59;;;;;;;18.20;17.10;;;;;;;;;;4942586;29;20040;-63
2023/05/24 12:06:35;;;;;;;20.83;19.42;;;;;;;;;;4945903;29;20047;-60
2023/05/24 12:09:01;;;;;;;19.25;17.60;;;;;;;;;;4944378;29;20043;-62
2023/05/24 12:11:29;;;;;;;18.52;17.52;;;;;;;;;;4941214;29;20207;-62
2023/05/24 12:13:56;;;;;;;18.88;17.77;;;;;;;;;;4942329;28;20389;-60
2023/05/24 12:16:22;;;;;;;18.77;17.77;;;;;;;;;;4940747;28;20103;-62
2023/05/24 12:18:47;;;;;;;16.77;15.80;;;;;;;;;;4945063;29;20038;-61
2023/05/24 12:21:12;;;;;;;17.40;16.40;;;;;;;;;;4942457;29;20035;-62
2023/05/24 12:23:38;;;;;;;18.42;17.20;;;;;;;;;;4940640;28;20567;-60
2023/05/24 12:26:04;;;;;;;19.63;18.52;;;;;;;;;;4938840;28;20430;-62
2023/05/24 12:28:37;;;;;;;17.67;16.67;;;;;;;;;;4943155;29;20041;-61
2023/05/24 12:31:03;;;;;;;19.55;18.35;;;;;;;;;;4943542;29;20043;-61
2023/05/24 12:33:29;;;;;;;19.00;17.95;;;;;;;;;;4942320;29;20035;-61
2023/05/24 12:35:55;;;;;;;29.50;27.85;;;;;;;;;;4942536;29;20102;-62
2023/05/24 12:38:24;;;;;;;22.30;21.02;;;;;;;;;;4942712;28;20047;-62
2023/05/24 12:40:51;;;;;;;21.27;19.98;;;;;;;;;;4938334;29;20062;-61
2023/05/24 12:43:18;;;;;;;26.75;25.30;;;;;;;;;;4942167;29;20138;-61
2023/05/24 12:45:43;;;;;;;18.35;17.35;;;;;;;;;;4941124;29;20043;-62
2023/05/24 12:48:09;;;;;;;20.58;19.42;;;;;;;;;;4945475;29;20054;-61
2023/05/24 12:50:34;;;;;;;20.30;19.17;;;;;;;;;;4943329;29;20523;-61
2023/05/24 12:52:59;;;;;;;30.00;28.35;;;;;;;;;;4945799;28;20035;-64
2023/05/24 12:55:26;;;;;;;31.02;29.38;;;;;;;;;;4942185;28;20531;-60
2023/05/24 12:57:53;;;;;;;27.35;25.88;;;;;;;;;;4941506;29;20110;-60
2023/05/24 13:00:20;;;;;;;26.33;24.50;;;;;;;;;;4940288;29;20039;-60
2023/05/24 13:02:46;;;;;;;22.02;20.73;;;;;;;;;;4941595;29;20739;-61
2023/05/24 13:05:12;;;;;;;18.42;17.40;;;;;;;;;;4943321;28;20054;-60
2023/05/24 13:07:38;;;;;;;17.98;16.90;;;;;;;;;;4940493;29;20046;-60
2023/05/24 13:10:04;;;;;;;18.40;17.30;;;;;;;;;;4937881;28;20038;-60
2023/05/24 13:12:30;;;;;;;19.95;18.67;;;;;;;;;;4937458;28;20449;-60
2023/05/24 13:14:55;;;;;;;16.55;15.45;;;;;;;;;;4941594;29;20039;-60
2023/05/24 13:17:21;;;;;;;16.42;15.43;;;;;;;;;;4941081;29;20027;-60
2023/05/24 13:19:46;;;;;;;16.05;15.15;;;;;;;;;;4946846;29;20040;-60
2023/05/24 13:22:12;;;;;;;16.40;15.45;;;;;;;;;;4941213;28;20043;-63
2023/05/24 13:24:38;;;;;;;20.20;18.90;;;;;;;;;;4939832;28;20193;-64
2023/05/24 13:27:03;;;;;;;19.65;17.77;;;;;;;;;;4940995;29;20126;-63
2023/05/24 13:29:29;;;;;;;19.73;18.23;;;;;;;;;;4941735;29;20102;-63
2023/05/24 13:31:55;;;;;;;18.42;17.40;;;;;;;;;;4941853;29;20599;-63
2023/05/24 13:34:23;;;;;;;19.15;18.05;;;;;;;;;;4942135;28;20046;-63
2023/05/24 13:36:49;;;;;;;17.33;16.25;;;;;;;;;;4939914;29;20126;-63
2023/05/24 13:39:14;;;;;;;18.35;17.35;;;;;;;;;;4942516;29;20110;-60
2023/05/24 13:41:40;;;;;;;19.85;18.73;;;;;;;;;;4939256;29;20046;-61
2023/05/24 13:44:06;;;;;;;23.95;20.08;;;;;;;;;;4941651;29;20042;-60
2023/05/24 13:46:32;;;;;;;21.17;19.38;;;;;;;;;;4935174;29;20374;-60
2023/05/24 13:48:58;;;;;;;25.27;23.92;;;;;;;;;;4939248;28;20134;-60
2023/05/24 13:51:25;;;;;;;28.65;27.15;;;;;;;;;;4939493;28;20039;-64
2023/05/24 13:53:51;;;;;;;30.20;28.38;;;;;;;;;;4940166;29;20038;-62
2023/05/24 13:56:17;;;;;;;21.88;20.60;;;;;;;;;;4941966;28;20031;-62
2023/05/24 13:58:43;;;;;;;19.67;18.58;;;;;;;;;;4938145;29;20109;-60
2023/05/24 14:01:08;;;;;;;22.83;21.63;;;;;;;;;;4939270;29;20947;-60
2023/05/24 14:03:34;;;;;;;19.92;18.83;;;;;;;;;;4944223;28;20118;-60
2023/05/24 14:06:00;;;;;;;22.92;21.63;;;;;;;;;;4943482;29;20054;-60
2023/05/24 14:08:25;;;;;;;24.92;23.58;;;;;;;;;;4945822;29;20110;-60
2023/05/24 14:10:51;;;;;;;18.17;17.17;;;;;;;;;;4938711;28;20139;-63
2023/05/24 14:13:16;;;;;;;21.30;20.02;;;;;;;;;;4940132;29;20409;-59
2023/05/24 14:15:43;;;;;;;22.75;21.45;;;;;;;;;;4937912;29;20031;-60
2023/05/24 14:18:08;;;;;;;19.60;18.52;;;;;;;;;;4940822;28;20031;-60
2023/05/24 14:20:36;;;;;;;23.70;22.40;;;;;;;;;;4939958;28;20470;-60